King City, Canada
Current Conditions -  °F | °C
As of 11:00 AM on Thursday 30 Oct 2014 (Local Time) from CYKZ Reporting Station
Broken Clouds Broken Clouds  
Wind Chill: 39°   Ceiling: 2000
Heat Index: 43°   Visibility: 15mi
Dew Point: 34°   Wind: 6mph
Humidity: 70%   Direction: 320°NW
Pressure: 30.08"   Gusts: NA
Location:  43.93°N, 79.53°W
Report Text: CYKZ 301500Z 32005KT 15SM BKN020 06/01 A3008 RMK SC7 TCU EMBD SLP190
Loading
Personal Weather Stations






























Interactive Weather Map
Tropical Storm Tracking
New forecast layout! Learn more

10-Day Weather Forecast

Advertisements
Track Severe Weather on mobile